Dickinson, TX

10:12 AM CST on December 08, 2016 (GMT -0600)
Meadows of Bay Colony | | Change Station
Active Advisory: Wind Advisory

Elev 20 ft 29.46 °N, 95.09 °W | Updated 21 seconds ago

Overcast
Overcast
49.5 °F
Feels Like 47 °F
N
6.0
Wind Variable Wind from NE
Gusts 6.0 mph

Today
High -- | Low -- °F
--% Chance of Precip.
Yesterday
High -- | Low -- °F
Precip. -- in
Pressure 30.40 in
Visibility 10.0 miles
Clouds Overcast 1000 ft
Windchill 47 °F
Dew Point 46 °F
Humidity 86%
Rainfall 0.02 in
Snow Depth Not available.
7:03 AM 5:21 PM
Waxing Gibbous, 64% visible
SPECI KLVJ 081601Z AUTO 01016G22KT 10SM OVC010 10/07 A3040 RMK AO2 T01000067
Pressure 30.40 in
Visibility 10.0 miles
Clouds Overcast 1000 ft
Windchill 47 °F
Dew Point 46 °F
Humidity 86%
Rainfall 0.02 in
Snow Depth Not available.
7:03 AM 5:21 PM
Waxing Gibbous, 64% visible
SPECI KLVJ 081601Z AUTO 01016G22KT 10SM OVC010 10/07 A3040 RMK AO2 T01000067

10-Day Weather Forecast

Almanac

Astronomy

Dec. 08, 2016 Rise Set
Actual Time
Civil Twilight
Nautical Twilight
Astronomical Twilight
Moon
Length of Visible Light
Length of Day
Tomorrow will be .
, % of the Moon is Illuminated

Today's Extremes

State Highs State Lows

Community

WunderPhotos

Upload Photos

1,956,274 photos uploaded!

WunderBlog® & News

Nearby

Air Quality

  Air Quality AQ Index Pollutant
Not available.

Snow Depth

Station Depth Elevation

Earthquake Activity

City Distance Mag. Time & Date
Minimum magnitude displayed is 2.5.

Coastal Water Temperatures

Place Temperature

Stations

Nearby Weather Stations

Station Location Temp. Windchill Dew Point Humidity Wind Precip. Elev Updated Type
                   

Watches & Warnings

Wind Advisory
Issued: 3:47 AM CST Dec. 8, 2016 – National Weather Service

... Wind Advisory remains in effect until 6 PM CST this evening...

* event... north winds 20 to 30 mph with gusts of 35 mph

* timing... 6 am CST to 6 PM CST today

* impact... windy conditions could impact travel on area highways
for high profile vehicles. Any outdoor tents... canopies or
bounce houses will need to be secured.

Precautionary/preparedness actions...

Drivers of vans... campers... trailers... and other high-profile
vehicles should be alert to the danger of these winds...
especially when driving along east to west oriented roads.